sensor_id;sensor_type;location;lat;lon;timestamp;pressure;altitude;pressure_sealevel;temperature;humidity
51259;BME280;37327;54.254;18.504;2023-03-16T00:00:06;101067.72;;;-0.62;94.83
51259;BME280;37327;54.254;18.504;2023-03-16T00:03:32;101075.67;;;-0.62;94.94
51259;BME280;37327;54.254;18.504;2023-03-16T00:06:50;101066.96;;;-0.64;95.08
51259;BME280;37327;54.254;18.504;2023-03-16T00:10:09;101070.55;;;-0.65;95.10
51259;BME280;37327;54.254;18.504;2023-03-16T00:13:28;101067.15;;;-0.67;95.41
51259;BME280;37327;54.254;18.504;2023-03-16T00:16:46;101074.34;;;-0.69;95.64
51259;BME280;37327;54.254;18.504;2023-03-16T00:20:04;101072.66;;;-0.70;95.82
51259;BME280;37327;54.254;18.504;2023-03-16T00:23:23;101075.40;;;-0.72;96.12
51259;BME280;37327;54.254;18.504;2023-03-16T00:26:47;101070.94;;;-0.71;96.24
51259;BME280;37327;54.254;18.504;2023-03-16T00:30:06;101084.20;;;-0.71;96.38
51259;BME280;37327;54.254;18.504;2023-03-16T00:33:23;101083.43;;;-0.73;96.54
51259;BME280;37327;54.254;18.504;2023-03-16T00:36:41;101079.07;;;-0.74;96.57
51259;BME280;37327;54.254;18.504;2023-03-16T00:39:59;101083.61;;;-0.76;96.67
51259;BME280;37327;54.254;18.504;2023-03-16T00:43:16;101078.43;;;-0.78;96.65
51259;BME280;37327;54.254;18.504;2023-03-16T00:46:34;101073.13;;;-0.78;96.74
51259;BME280;37327;54.254;18.504;2023-03-16T00:49:51;101075.02;;;-0.80;96.87
51259;BME280;37327;54.254;18.504;2023-03-16T00:53:09;101077.77;;;-0.82;96.99
51259;BME280;37327;54.254;18.504;2023-03-16T00:56:27;101077.01;;;-0.84;97.16
51259;BME280;37327;54.254;18.504;2023-03-16T00:59:45;101074.36;;;-0.84;97.26
51259;BME280;37327;54.254;18.504;2023-03-16T01:03:02;101076.13;;;-0.84;97.44
51259;BME280;37327;54.254;18.504;2023-03-16T01:06:20;101083.33;;;-0.86;97.48
51259;BME280;37327;54.254;18.504;2023-03-16T01:09:39;101090.44;;;-0.87;97.64
51259;BME280;37327;54.254;18.504;2023-03-16T01:12:56;101089.59;;;-0.87;97.68
51259;BME280;37327;54.254;18.504;2023-03-16T01:16:15;101087.98;;;-0.90;97.90
51259;BME280;37327;54.254;18.504;2023-03-16T01:19:39;101081.73;;;-0.89;97.79
51259;BME280;37327;54.254;18.504;2023-03-16T01:22:57;101077.39;;;-0.90;97.98
51259;BME280;37327;54.254;18.504;2023-03-16T01:26:14;101093.29;;;-0.90;98.02
51259;BME280;37327;54.254;18.504;2023-03-16T01:29:34;101086.28;;;-0.91;98.09
51259;BME280;37327;54.254;18.504;2023-03-16T01:32:51;101086.28;;;-0.91;98.16
51259;BME280;37327;54.254;18.504;2023-03-16T01:36:13;101094.23;;;-0.91;98.28
51259;BME280;37327;54.254;18.504;2023-03-16T01:39:30;101091.75;;;-0.94;98.57
51259;BME280;37327;54.254;18.504;2023-03-16T01:42:58;101088.34;;;-0.96;98.60
51259;BME280;37327;54.254;18.504;2023-03-16T01:46:20;101095.44;;;-0.96;98.92
51259;BME280;37327;54.254;18.504;2023-03-16T01:49:38;101098.94;;;-0.96;98.94
51259;BME280;37327;54.254;18.504;2023-03-16T01:52:55;101099.91;;;-0.97;99.12
51259;BME280;37327;54.254;18.504;2023-03-16T01:56:16;101099.15;;;-0.99;99.24
51259;BME280;37327;54.254;18.504;2023-03-16T01:59:42;101101.04;;;-1.01;99.53
51259;BME280;37327;54.254;18.504;2023-03-16T02:03:06;101095.74;;;-1.01;99.62
51259;BME280;37327;54.254;18.504;2023-03-16T02:06:24;101101.97;;;-1.02;99.81
51259;BME280;37327;54.254;18.504;2023-03-16T02:09:44;101101.12;;;-1.03;100.00
51259;BME280;37327;54.254;18.504;2023-03-16T02:13:02;101102.92;;;-1.03;100.00
51259;BME280;37327;54.254;18.504;2023-03-16T02:16:19;101101.04;;;-1.01;100.00
51259;BME280;37327;54.254;18.504;2023-03-16T02:19:46;101095.54;;;-0.98;100.00
51259;BME280;37327;54.254;18.504;2023-03-16T02:23:09;101097.25;;;-0.97;100.00
51259;BME280;37327;54.254;18.504;2023-03-16T02:30:10;101098.94;;;-0.96;100.00
51259;BME280;37327;54.254;18.504;2023-03-16T02:33:30;101097.16;;;-0.95;100.00
51259;BME280;37327;54.254;18.504;2023-03-16T02:36:49;101100.66;;;-0.95;100.00
51259;BME280;37327;54.254;18.504;2023-03-16T02:40:15;101097.25;;;-0.97;100.00
51259;BME280;37327;54.254;18.504;2023-03-16T02:43:40;101101.71;;;-0.97;100.00
51259;BME280;37327;54.254;18.504;2023-03-16T02:47:03;101106.25;;;-1.00;100.00
51259;BME280;37327;54.254;18.504;2023-03-16T02:50:22;101097.63;;;-1.03;100.00
51259;BME280;37327;54.254;18.504;2023-03-16T02:53:40;101105.66;;;-1.05;100.00
51259;BME280;37327;54.254;18.504;2023-03-16T02:56:57;101107.47;;;-1.05;100.00
51259;BME280;37327;54.254;18.504;2023-03-16T03:00:15;101104.91;;;-1.07;100.00
51259;BME280;37327;54.254;18.504;2023-03-16T03:03:37;101107.64;;;-1.08;100.00
51259;BME280;37327;54.254;18.504;2023-03-16T03:06:54;101104.23;;;-1.10;100.00
51259;BME280;37327;54.254;18.504;2023-03-16T03:10:20;101105.16;;;-1.11;100.00
51259;BME280;37327;54.254;18.504;2023-03-16T03:13:37;101100.82;;;-1.12;100.00
51259;BME280;37327;54.254;18.504;2023-03-16T03:16:55;101100.74;;;-1.11;100.00
51259;BME280;37327;54.254;18.504;2023-03-16T03:20:13;101099.02;;;-1.12;100.00
51259;BME280;37327;54.254;18.504;2023-03-16T03:23:33;101103.64;;;-1.15;100.00
51259;BME280;37327;54.254;18.504;2023-03-16T03:26:53;101107.25;;;-1.16;100.00
51259;BME280;37327;54.254;18.504;2023-03-16T03:30:17;101109.91;;;-1.16;100.00
51259;BME280;37327;54.254;18.504;2023-03-16T03:33:35;101111.79;;;-1.18;100.00
51259;BME280;37327;54.254;18.504;2023-03-16T03:36:52;101112.72;;;-1.20;100.00
51259;BME280;37327;54.254;18.504;2023-03-16T03:40:12;101108.38;;;-1.21;100.00
51259;BME280;37327;54.254;18.504;2023-03-16T03:43:30;101115.48;;;-1.21;100.00
51259;BME280;37327;54.254;18.504;2023-03-16T03:46:48;101119.91;;;-1.22;100.00
51259;BME280;37327;54.254;18.504;2023-03-16T03:50:09;101122.56;;;-1.22;100.00
51259;BME280;37327;54.254;18.504;2023-03-16T03:53:26;101118.98;;;-1.21;100.00
51259;BME280;37327;54.254;18.504;2023-03-16T03:56:43;101113.77;;;-1.22;100.00
51259;BME280;37327;54.254;18.504;2023-03-16T04:00:02;101105.73;;;-1.21;100.00
51259;BME280;37327;54.254;18.504;2023-03-16T04:03:25;101094.94;;;-1.17;100.00
51259;BME280;37327;54.254;18.504;2023-03-16T04:06:42;101108.95;;;-1.15;100.00
51259;BME280;37327;54.254;18.504;2023-03-16T04:10:00;101109.70;;;-1.13;100.00
51259;BME280;37327;54.254;18.504;2023-03-16T04:13:17;101108.95;;;-1.15;100.00
51259;BME280;37327;54.254;18.504;2023-03-16T04:16:34;101110.66;;;-1.14;100.00
51259;BME280;37327;54.254;18.504;2023-03-16T04:19:52;101108.95;;;-1.15;100.00
51259;BME280;37327;54.254;18.504;2023-03-16T04:23:10;101107.34;;;-1.18;100.00
51259;BME280;37327;54.254;18.504;2023-03-16T04:26:27;101106.57;;;-1.20;100.00
51259;BME280;37327;54.254;18.504;2023-03-16T04:29:45;101103.93;;;-1.20;100.00
51259;BME280;37327;54.254;18.504;2023-03-16T04:33:02;101109.30;;;-1.22;100.00
51259;BME280;37327;54.254;18.504;2023-03-16T04:36:20;101106.74;;;-1.23;100.00
51259;BME280;37327;54.254;18.504;2023-03-16T04:39:40;101111.12;;;-1.22;100.00
51259;BME280;37327;54.254;18.504;2023-03-16T04:42:58;101105.82;;;-1.22;100.00
51259;BME280;37327;54.254;18.504;2023-03-16T04:46:15;101106.57;;;-1.20;100.00
51259;BME280;37327;54.254;18.504;2023-03-16T04:49:33;101107.42;;;-1.20;100.00
51259;BME280;37327;54.254;18.504;2023-03-16T04:52:50;101103.00;;;-1.19;100.00
51259;BME280;37327;54.254;18.504;2023-03-16T04:56:07;101105.73;;;-1.21;100.00
51259;BME280;37327;54.254;18.504;2023-03-16T04:59:25;101109.14;;;-1.18;100.00
51259;BME280;37327;54.254;18.504;2023-03-16T05:02:44;101111.59;;;-1.15;100.00
51259;BME280;37327;54.254;18.504;2023-03-16T05:06:01;101115.88;;;-1.13;100.00
51259;BME280;37327;54.254;18.504;2023-03-16T05:09:19;101113.11;;;-1.11;100.00
51259;BME280;37327;54.254;18.504;2023-03-16T05:12:36;101113.90;;;-1.09;100.00
51259;BME280;37327;54.254;18.504;2023-03-16T05:15:54;101110.20;;;-1.07;100.00
51259;BME280;37327;54.254;18.504;2023-03-16T05:19:11;101113.70;;;-1.06;100.00
51259;BME280;37327;54.254;18.504;2023-03-16T05:22:28;101117.11;;;-1.04;100.00
51259;BME280;37327;54.254;18.504;2023-03-16T05:25:46;101117.95;;;-1.04;100.00
51259;BME280;37327;54.254;18.504;2023-03-16T05:29:05;101116.93;;;-1.01;100.00
51259;BME280;37327;54.254;18.504;2023-03-16T05:32:22;101119.30;;;-0.96;100.00
51259;BME280;37327;54.254;18.504;2023-03-16T05:35:40;101118.08;;;-0.91;100.00
51259;BME280;37327;54.254;18.504;2023-03-16T05:38:58;101113.54;;;-0.89;100.00
51259;BME280;37327;54.254;18.504;2023-03-16T05:42:16;101115.34;;;-0.75;100.00
51259;BME280;37327;54.254;18.504;2023-03-16T05:45:35;101123.20;;;-0.59;100.00
51259;BME280;37327;54.254;18.504;2023-03-16T05:48:53;101118.67;;;-0.43;100.00
51259;BME280;37327;54.254;18.504;2023-03-16T05:52:10;101118.38;;;-0.38;100.00
51259;BME280;37327;54.254;18.504;2023-03-16T05:55:28;101121.02;;;-0.38;100.00
51259;BME280;37327;54.254;18.504;2023-03-16T05:58:46;101126.34;;;-0.38;100.00
51259;BME280;37327;54.254;18.504;2023-03-16T06:02:04;101126.51;;;-0.41;100.00
51259;BME280;37327;54.254;18.504;2023-03-16T06:05:21;101125.19;;;-0.19;100.00
51259;BME280;37327;54.254;18.504;2023-03-16T06:08:41;101125.14;;;0.89;100.00
51259;BME280;37327;54.254;18.504;2023-03-16T06:11:59;101123.63;;;2.12;100.00
51259;BME280;37327;54.254;18.504;2023-03-16T06:15:16;101115.07;;;3.14;100.00
51259;BME280;37327;54.254;18.504;2023-03-16T06:18:34;101116.78;;;3.83;97.42
51259;BME280;37327;54.254;18.504;2023-03-16T06:21:51;101111.51;;;4.48;95.07
51259;BME280;37327;54.254;18.504;2023-03-16T06:25:10;101115.28;;;5.20;90.10
51259;BME280;37327;54.254;18.504;2023-03-16T06:28:28;101113.30;;;5.83;89.51
51259;BME280;37327;54.254;18.504;2023-03-16T06:31:46;101115.72;;;6.37;84.73
51259;BME280;37327;54.254;18.504;2023-03-16T06:35:04;101114.59;;;6.88;84.28
51259;BME280;37327;54.254;18.504;2023-03-16T06:38:21;101111.46;;;7.49;82.00
51259;BME280;37327;54.254;18.504;2023-03-16T06:41:40;101114.45;;;8.29;79.56
51259;BME280;37327;54.254;18.504;2023-03-16T06:44:59;101115.64;;;8.45;74.01
51259;BME280;37327;54.254;18.504;2023-03-16T06:48:16;101115.92;;;7.68;73.54
51259;BME280;37327;54.254;18.504;2023-03-16T06:51:34;101134.92;;;6.81;73.95
51259;BME280;37327;54.254;18.504;2023-03-16T06:54:51;101137.29;;;5.85;74.50
51259;BME280;37327;54.254;18.504;2023-03-16T06:58:08;101141.27;;;5.08;76.55
51259;BME280;37327;54.254;18.504;2023-03-16T07:01:27;101146.63;;;4.43;78.57
51259;BME280;37327;54.254;18.504;2023-03-16T07:04:45;101150.28;;;3.87;80.23
51259;BME280;37327;54.254;18.504;2023-03-16T07:08:03;101159.03;;;3.55;81.83
51259;BME280;37327;54.254;18.504;2023-03-16T07:11:21;101162.77;;;3.30;83.43
51259;BME280;37327;54.254;18.504;2023-03-16T07:14:39;101165.98;;;3.11;84.48
51259;BME280;37327;54.254;18.504;2023-03-16T07:17:57;101166.63;;;2.91;85.59
51259;BME280;37327;54.254;18.504;2023-03-16T07:21:14;101169.15;;;2.81;86.43
51259;BME280;37327;54.254;18.504;2023-03-16T07:24:31;101173.37;;;2.72;86.86
51259;BME280;37327;54.254;18.504;2023-03-16T07:27:49;101176.71;;;2.63;87.57
51259;BME280;37327;54.254;18.504;2023-03-16T07:31:06;101178.88;;;2.58;88.18
51259;BME280;37327;54.254;18.504;2023-03-16T07:34:25;101186.57;;;2.50;88.48
51259;BME280;37327;54.254;18.504;2023-03-16T07:37:42;101199.30;;;2.46;88.95
51259;BME280;37327;54.254;18.504;2023-03-16T07:41:00;101200.25;;;2.45;89.06
51259;BME280;37327;54.254;18.504;2023-03-16T07:44:17;101201.97;;;2.46;89.49
51259;BME280;37327;54.254;18.504;2023-03-16T07:47:36;101193.63;;;2.51;89.82
51259;BME280;37327;54.254;18.504;2023-03-16T07:50:53;101196.46;;;2.61;90.03
51259;BME280;37327;54.254;18.504;2023-03-16T07:54:10;101203.16;;;2.66;89.83
51259;BME280;37327;54.254;18.504;2023-03-16T07:57:29;101205.82;;;2.66;89.83
51259;BME280;37327;54.254;18.504;2023-03-16T08:00:47;101210.07;;;2.69;90.04
51259;BME280;37327;54.254;18.504;2023-03-16T08:04:04;101205.37;;;2.72;90.29
51259;BME280;37327;54.254;18.504;2023-03-16T08:07:21;101212.80;;;2.80;90.32
51259;BME280;37327;54.254;18.504;2023-03-16T08:10:38;101213.63;;;2.81;90.21
51259;BME280;37327;54.254;18.504;2023-03-16T08:13:57;101216.83;;;2.86;90.22
51259;BME280;37327;54.254;18.504;2023-03-16T08:17:14;101222.05;;;2.87;89.87
51259;BME280;37327;54.254;18.504;2023-03-16T08:20:31;101213.07;;;2.88;89.83
51259;BME280;37327;54.254;18.504;2023-03-16T08:23:49;101220.60;;;2.94;89.56
51259;BME280;37327;54.254;18.504;2023-03-16T08:27:07;101225.84;;;2.96;89.45
51259;BME280;37327;54.254;18.504;2023-03-16T08:30:25;101227.55;;;2.97;89.57
51259;BME280;37327;54.254;18.504;2023-03-16T08:33:44;101234.22;;;3.03;89.45
51259;BME280;37327;54.254;18.504;2023-03-16T08:37:02;101234.38;;;3.12;89.87
51259;BME280;37327;54.254;18.504;2023-03-16T08:40:20;101234.67;;;3.21;89.47
51259;BME280;37327;54.254;18.504;2023-03-16T08:43:38;101236.02;;;3.26;89.09
51259;BME280;37327;54.254;18.504;2023-03-16T08:46:55;101235.88;;;3.28;88.65
51259;BME280;37327;54.254;18.504;2023-03-16T08:50:13;101240.27;;;3.29;88.71
51259;BME280;37327;54.254;18.504;2023-03-16T08:53:31;101239.69;;;3.36;88.76
51259;BME280;37327;54.254;18.504;2023-03-16T08:56:49;101241.18;;;3.52;88.70
51259;BME280;37327;54.254;18.504;2023-03-16T09:00:08;101256.25;;;3.64;88.59
51259;BME280;37327;54.254;18.504;2023-03-16T09:03:29;101252.39;;;3.80;87.92
51259;BME280;37327;54.254;18.504;2023-03-16T09:06:48;101261.27;;;3.91;87.46
51259;BME280;37327;54.254;18.504;2023-03-16T09:10:08;101271.97;;;4.03;86.71
51259;BME280;37327;54.254;18.504;2023-03-16T09:13:31;101269.54;;;4.11;86.55
51259;BME280;37327;54.254;18.504;2023-03-16T09:16:49;101273.28;;;4.20;86.59
51259;BME280;37327;54.254;18.504;2023-03-16T09:20:09;101262.72;;;4.29;85.85
51259;BME280;37327;54.254;18.504;2023-03-16T09:23:28;101275.96;;;4.42;85.82
51259;BME280;37327;54.254;18.504;2023-03-16T09:26:45;101284.21;;;4.62;85.36
51259;BME280;37327;54.254;18.504;2023-03-16T09:30:04;101282.13;;;4.77;84.38
51259;BME280;37327;54.254;18.504;2023-03-16T09:33:24;101288.31;;;4.77;83.43
51259;BME280;37327;54.254;18.504;2023-03-16T09:36:43;101299.37;;;4.72;82.97
51259;BME280;37327;54.254;18.504;2023-03-16T09:40:01;101296.35;;;4.66;82.29
51259;BME280;37327;54.254;18.504;2023-03-16T09:46:49;101302.30;;;4.69;82.74
51259;BME280;37327;54.254;18.504;2023-03-16T09:50:22;101314.22;;;4.77;82.74
51259;BME280;37327;54.254;18.504;2023-03-16T09:53:37;101307.26;;;4.85;82.28
51259;BME280;37327;54.254;18.504;2023-03-16T09:56:56;101309.08;;;4.96;82.59
51259;BME280;37327;54.254;18.504;2023-03-16T10:03:53;101320.93;;;5.14;81.46
51259;BME280;37327;54.254;18.504;2023-03-16T10:07:35;101312.47;;;5.30;80.80
51259;BME280;37327;54.254;18.504;2023-03-16T10:14:27;101324.41;;;5.59;79.30
51259;BME280;37327;54.254;18.504;2023-03-16T10:17:52;101329.50;;;5.62;78.52
51259;BME280;37327;54.254;18.504;2023-03-16T10:21:13;101338.97;;;5.66;78.86
51259;BME280;37327;54.254;18.504;2023-03-16T10:28:03;101338.53;;;5.61;77.32
51259;BME280;37327;54.254;18.504;2023-03-16T10:31:22;101353.88;;;5.59;77.18
51259;BME280;37327;54.254;18.504;2023-03-16T10:34:42;101353.65;;;5.50;77.68
51259;BME280;37327;54.254;18.504;2023-03-16T10:38:02;101356.23;;;5.41;77.55
51259;BME280;37327;54.254;18.504;2023-03-16T10:41:28;101359.82;;;5.30;77.15
51259;BME280;37327;54.254;18.504;2023-03-16T10:44:46;101368.37;;;5.24;77.80
51259;BME280;37327;54.254;18.504;2023-03-16T10:48:07;101368.63;;;5.09;77.36
51259;BME280;37327;54.254;18.504;2023-03-16T10:51:27;101370.37;;;4.88;77.34
51259;BME280;37327;54.254;18.504;2023-03-16T10:55:00;101374.88;;;4.76;77.81
51259;BME280;37327;54.254;18.504;2023-03-16T11:01:46;101372.09;;;4.89;77.71
51259;BME280;37327;54.254;18.504;2023-03-16T11:05:18;101371.79;;;5.14;77.90
51259;BME280;37327;54.254;18.504;2023-03-16T11:08:38;101379.38;;;5.42;77.19
51259;BME280;37327;54.254;18.504;2023-03-16T11:11:57;101375.31;;;5.59;77.30
51259;BME280;37327;54.254;18.504;2023-03-16T11:15:15;101380.40;;;5.62;76.78
51259;BME280;37327;54.254;18.504;2023-03-16T11:18:43;101387.47;;;5.63;76.20
51259;BME280;37327;54.254;18.504;2023-03-16T11:22:15;101392.87;;;5.51;75.40
51259;BME280;37327;54.254;18.504;2023-03-16T11:25:41;101394.97;;;5.37;75.22
51259;BME280;37327;54.254;18.504;2023-03-16T11:29:14;101403.36;;;5.43;75.55
51259;BME280;37327;54.254;18.504;2023-03-16T11:32:38;101392.16;;;6.03;75.74
51259;BME280;37327;54.254;18.504;2023-03-16T11:46:29;101385.78;;;6.46;72.04
51259;BME280;37327;54.254;18.504;2023-03-16T11:49:59;101388.34;;;6.47;71.97
51259;BME280;37327;54.254;18.504;2023-03-16T11:53:27;101402.70;;;6.37;71.42
51259;BME280;37327;54.254;18.504;2023-03-16T12:14:26;101407.19;;;6.36;72.14
51259;BME280;37327;54.254;18.504;2023-03-16T12:17:45;101406.60;;;6.32;71.87
51259;BME280;37327;54.254;18.504;2023-03-16T12:21:18;101405.27;;;6.48;72.53
51259;BME280;37327;54.254;18.504;2023-03-16T12:24:41;101408.77;;;6.69;71.93
51259;BME280;37327;54.254;18.504;2023-03-16T12:28:02;101415.56;;;6.73;70.70
51259;BME280;37327;54.254;18.504;2023-03-16T12:31:34;101418.70;;;6.48;69.86
51259;BME280;37327;54.254;18.504;2023-03-16T12:34:59;101433.28;;;6.13;71.53
51259;BME280;37327;54.254;18.504;2023-03-16T12:48:50;101462.64;;;4.02;82.65
51259;BME280;37327;54.254;18.504;2023-03-16T12:52:10;101471.64;;;4.01;84.66
51259;BME280;37327;54.254;18.504;2023-03-16T12:55:42;101477.73;;;4.14;85.96
51259;BME280;37327;54.254;18.504;2023-03-16T12:59:03;101482.91;;;4.28;86.59
51259;BME280;37327;54.254;18.504;2023-03-16T13:02:30;101489.09;;;4.29;86.83
51259;BME280;37327;54.254;18.504;2023-03-16T13:05:57;101498.73;;;4.07;87.32
51259;BME280;37327;54.254;18.504;2023-03-16T13:09:24;101502.63;;;3.79;88.73
51259;BME280;37327;54.254;18.504;2023-03-16T13:12:44;101507.35;;;3.75;90.90
51259;BME280;37327;54.254;18.504;2023-03-16T13:16:07;101509.20;;;3.86;92.72
51259;BME280;37327;54.254;18.504;2023-03-16T13:19:28;101512.40;;;3.91;92.75
51259;BME280;37327;54.254;18.504;2023-03-16T13:22:50;101520.59;;;4.01;92.72
51259;BME280;37327;54.254;18.504;2023-03-16T13:26:15;101512.40;;;3.91;92.21
51259;BME280;37327;54.254;18.504;2023-03-16T13:29:32;101518.30;;;3.84;92.55
51259;BME280;37327;54.254;18.504;2023-03-16T13:32:58;101514.72;;;3.72;92.20
51259;BME280;37327;54.254;18.504;2023-03-16T13:36:16;101525.22;;;3.62;91.28
51259;BME280;37327;54.254;18.504;2023-03-16T13:39:34;101514.72;;;3.72;91.88
51259;BME280;37327;54.254;18.504;2023-03-16T13:42:52;101521.66;;;3.99;92.42
51259;BME280;37327;54.254;18.504;2023-03-16T13:46:17;101517.08;;;4.36;91.50
51259;BME280;37327;54.254;18.504;2023-03-16T13:53:11;101529.35;;;4.39;86.98
51259;BME280;37327;54.254;18.504;2023-03-16T13:56:32;101530.98;;;4.17;83.24
51259;BME280;37327;54.254;18.504;2023-03-16T13:59:50;101526.55;;;4.05;82.83
51259;BME280;37327;54.254;18.504;2023-03-16T14:03:16;101536.15;;;4.07;82.70
51259;BME280;37327;54.254;18.504;2023-03-16T14:06:34;101539.35;;;4.12;83.30
51259;BME280;37327;54.254;18.504;2023-03-16T14:09:53;101548.31;;;4.11;81.52
51259;BME280;37327;54.254;18.504;2023-03-16T14:13:24;101555.84;;;4.06;81.13
51259;BME280;37327;54.254;18.504;2023-03-16T14:16:43;101547.66;;;3.97;80.52
51259;BME280;37327;54.254;18.504;2023-03-16T14:20:01;101541.78;;;3.91;80.51
51259;BME280;37327;54.254;18.504;2023-03-16T14:23:26;101547.66;;;3.97;81.62
51259;BME280;37327;54.254;18.504;2023-03-16T14:26:47;101546.21;;;4.04;81.20
51259;BME280;37327;54.254;18.504;2023-03-16T14:33:42;101543.05;;;3.99;77.99
51259;BME280;37327;54.254;18.504;2023-03-16T14:37:08;101544.53;;;4.03;78.21
51259;BME280;37327;54.254;18.504;2023-03-16T14:40:29;101544.05;;;4.09;77.71
51259;BME280;37327;54.254;18.504;2023-03-16T14:43:55;101548.95;;;4.15;77.74
51259;BME280;37327;54.254;18.504;2023-03-16T14:47:20;101547.05;;;4.28;77.76
51259;BME280;37327;54.254;18.504;2023-03-16T14:50:38;101548.59;;;4.44;75.98
51259;BME280;37327;54.254;18.504;2023-03-16T14:53:56;101558.55;;;4.53;75.98
51259;BME280;37327;54.254;18.504;2023-03-16T14:57:16;101564.30;;;4.60;75.32
51259;BME280;37327;54.254;18.504;2023-03-16T15:00:34;101566.62;;;4.64;74.44
51259;BME280;37327;54.254;18.504;2023-03-16T15:03:51;101553.50;;;4.61;73.01
51259;BME280;37327;54.254;18.504;2023-03-16T15:10:39;101555.81;;;4.66;71.96
51259;BME280;37327;54.254;18.504;2023-03-16T15:13:56;101553.03;;;4.67;72.37
51259;BME280;37327;54.254;18.504;2023-03-16T15:17:24;101550.60;;;4.75;72.76
51259;BME280;37327;54.254;18.504;2023-03-16T15:20:44;101563.87;;;4.77;72.44
51259;BME280;37327;54.254;18.504;2023-03-16T15:24:01;101567.25;;;4.68;71.31
51259;BME280;37327;54.254;18.504;2023-03-16T15:27:21;101573.53;;;4.55;71.25
51259;BME280;37327;54.254;18.504;2023-03-16T15:30:40;101579.46;;;4.48;71.56
51259;BME280;37327;54.254;18.504;2023-03-16T15:33:58;101585.61;;;4.37;71.86
51259;BME280;37327;54.254;18.504;2023-03-16T15:37:16;101584.49;;;4.28;74.96
51259;BME280;37327;54.254;18.504;2023-03-16T15:40:35;101579.44;;;4.12;77.46
51259;BME280;37327;54.254;18.504;2023-03-16T15:43:53;101581.20;;;4.01;79.20
51259;BME280;37327;54.254;18.504;2023-03-16T15:47:17;101583.80;;;3.89;81.65
51259;BME280;37327;54.254;18.504;2023-03-16T15:50:35;101585.73;;;3.87;82.88
51259;BME280;37327;54.254;18.504;2023-03-16T15:54:03;101590.33;;;3.85;83.80
51259;BME280;37327;54.254;18.504;2023-03-16T15:57:23;101597.70;;;3.82;83.93
51259;BME280;37327;54.254;18.504;2023-03-16T16:00:41;101603.50;;;3.75;84.33
51259;BME280;37327;54.254;18.504;2023-03-16T16:03:58;101599.34;;;3.71;85.01
51259;BME280;37327;54.254;18.504;2023-03-16T16:07:15;101608.65;;;3.66;84.80
51259;BME280;37327;54.254;18.504;2023-03-16T16:10:33;101606.63;;;3.56;84.96
51259;BME280;37327;54.254;18.504;2023-03-16T16:13:53;101610.07;;;3.46;84.92
51259;BME280;37327;54.254;18.504;2023-03-16T16:17:14;101623.33;;;3.34;84.98
51259;BME280;37327;54.254;18.504;2023-03-16T16:20:41;101624.59;;;3.16;85.53
51259;BME280;37327;54.254;18.504;2023-03-16T16:23:58;101630.13;;;3.00;86.04
51259;BME280;37327;54.254;18.504;2023-03-16T16:27:18;101641.42;;;2.91;86.41
51259;BME280;37327;54.254;18.504;2023-03-16T16:30:35;101640.34;;;2.81;86.81
51259;BME280;37327;54.254;18.504;2023-03-16T16:33:55;101645.54;;;2.69;87.41
51259;BME280;37327;54.254;18.504;2023-03-16T16:37:17;101648.09;;;2.58;88.40
51259;BME280;37327;54.254;18.504;2023-03-16T16:40:37;101640.79;;;2.47;89.06
51259;BME280;37327;54.254;18.504;2023-03-16T16:44:05;101658.13;;;2.40;89.40
51259;BME280;37327;54.254;18.504;2023-03-16T16:47:29;101656.27;;;2.28;90.10
51259;BME280;37327;54.254;18.504;2023-03-16T16:50:46;101664.98;;;2.17;90.83
51259;BME280;37327;54.254;18.504;2023-03-16T16:57:32;101684.41;;;2.05;91.99
51259;BME280;37327;54.254;18.504;2023-03-16T17:00:53;101683.10;;;1.97;91.98
51259;BME280;37327;54.254;18.504;2023-03-16T17:04:14;101691.57;;;1.90;92.59
51259;BME280;37327;54.254;18.504;2023-03-16T17:07:32;101689.38;;;1.82;93.21
51259;BME280;37327;54.254;18.504;2023-03-16T17:10:51;101691.38;;;1.78;93.71
51259;BME280;37327;54.254;18.504;2023-03-16T17:14:15;101696.89;;;1.75;94.00
51259;BME280;37327;54.254;18.504;2023-03-16T17:17:33;101701.84;;;1.67;94.07
51259;BME280;37327;54.254;18.504;2023-03-16T17:20:50;101702.30;;;1.60;94.35
51259;BME280;37327;54.254;18.504;2023-03-16T17:24:08;101700.03;;;1.53;94.40
51259;BME280;37327;54.254;18.504;2023-03-16T17:27:28;101709.24;;;1.48;94.67
51259;BME280;37327;54.254;18.504;2023-03-16T17:30:48;101711.44;;;1.41;94.74
51259;BME280;37327;54.254;18.504;2023-03-16T17:34:13;101717.89;;;1.37;95.36
51259;BME280;37327;54.254;18.504;2023-03-16T17:37:34;101724.15;;;1.36;95.32
51259;BME280;37327;54.254;18.504;2023-03-16T17:40:52;101717.59;;;1.27;95.34
51259;BME280;37327;54.254;18.504;2023-03-16T17:44:13;101725.91;;;1.21;95.38
51259;BME280;37327;54.254;18.504;2023-03-16T17:47:31;101724.59;;;1.14;96.08
51259;BME280;37327;54.254;18.504;2023-03-16T17:50:54;101734.71;;;1.07;96.33
51259;BME280;37327;54.254;18.504;2023-03-16T17:54:12;101722.83;;;0.98;96.54
51259;BME280;37327;54.254;18.504;2023-03-16T17:57:31;101727.55;;;0.93;96.60
51259;BME280;37327;54.254;18.504;2023-03-16T18:00:50;101728.87;;;0.86;96.87
51259;BME280;37327;54.254;18.504;2023-03-16T18:04:16;101735.39;;;0.81;97.08
51259;BME280;37327;54.254;18.504;2023-03-16T18:07:34;101729.48;;;0.75;97.33
51259;BME280;37327;54.254;18.504;2023-03-16T18:10:57;101741.23;;;0.71;97.42
51259;BME280;37327;54.254;18.504;2023-03-16T18:17:52;101748.03;;;0.61;97.52
51259;BME280;37327;54.254;18.504;2023-03-16T18:21:20;101755.38;;;0.56;97.65
51259;BME280;37327;54.254;18.504;2023-03-16T18:24:40;101751.47;;;0.47;98.12
51259;BME280;37327;54.254;18.504;2023-03-16T18:27:59;101752.47;;;0.45;98.10
51259;BME280;37327;54.254;18.504;2023-03-16T18:31:23;101750.93;;;0.41;98.35